Time;durP1;ratioP1;P1;durP2;ratioP2;P2;SDS_P1;SDS_P2;PMS_P1;PMS_P2;Temp;Humidity;BMP_temperature;BMP_pressure;BME280_temperature;BME280_humidity;BME280_pressure;Samples;Min_cycle;Max_cycle;Signal;HPM_P1;HPM_P2
2022/07/17 00:01:13;;;;;;;11.50;1.67;;;;;;;25.30;49.76;99731.38;10303753;28;20404;-71
2022/07/17 00:06:14;;;;;;;13.00;1.75;;;;;;;25.76;49.56;99818.16;10335484;28;20045;-71
2022/07/17 00:11:15;;;;;;;8.20;1.55;;;;;;;25.85;49.92;99837.44;10335601;28;20451;-71
2022/07/17 00:16:16;;;;;;;15.70;2.20;;;;;;;25.76;50.76;99839.91;10303447;28;20045;-71
2022/07/17 00:21:17;;;;;;;13.60;1.70;;;;;;;25.66;49.97;99829.88;10303930;28;20049;-71
2022/07/17 00:26:17;;;;;;;14.80;2.28;;;;;;;25.35;50.89;99796.59;10303415;28;20046;-71
2022/07/17 00:31:18;;;;;;;15.35;2.95;;;;;;;25.43;50.07;99841.44;10304435;28;20039;-70
2022/07/17 00:36:19;;;;;;;14.30;1.80;;;;;;;25.36;50.17;99855.31;10303655;28;20058;-70
2022/07/17 00:41:20;;;;;;;9.85;1.92;;;;;;;25.33;49.72;99874.91;10297582;28;20042;-71
2022/07/17 00:46:21;;;;;;;14.57;1.30;;;;;;;25.15;49.91;99802.13;10297093;28;20425;-70
2022/07/17 00:51:22;;;;;;;14.80;2.90;;;;;;;25.21;49.88;99746.66;10297705;28;20053;-71
2022/07/17 00:56:23;;;;;;;10.82;1.80;;;;;;;24.99;49.90;99777.69;10296218;28;20415;-71
2022/07/17 01:01:24;;;;;;;14.90;2.28;;;;;;;25.06;51.01;99831.75;10295846;28;20101;-71
2022/07/17 01:06:25;;;;;;;27.40;2.88;;;;;;;25.06;51.25;99875.22;10296612;28;20046;-71
2022/07/17 01:11:26;;;;;;;13.38;1.73;;;;;;;25.18;50.86;99908.38;10327855;28;20042;-71
2022/07/17 01:16:27;;;;;;;8.57;1.45;;;;;;;25.02;50.74;99887.75;10296120;28;20487;-70
2022/07/17 01:21:43;;;;;;;5.47;1.15;;;;;;;24.89;50.94;99910.03;10295431;28;20043;-70
2022/07/17 01:26:46;;;;;;;7.00;1.45;;;;;;;24.70;51.68;99918.72;10295941;28;20133;-70
2022/07/17 01:31:48;;;;;;;14.23;1.57;;;;;;;24.44;53.05;99912.50;10299000;28;20053;-70
2022/07/17 01:36:49;;;;;;;5.28;1.20;;;;;;;24.18;53.43;99895.31;10336001;28;20621;-71
2022/07/17 01:41:50;;;;;;;13.60;1.48;;;;;;;23.50;54.30;99824.88;10335965;28;20137;-72
2022/07/17 01:46:50;;;;;;;7.32;1.50;;;;;;;23.47;54.83;99839.75;10335805;28;20046;-72
2022/07/17 01:51:51;;;;;;;8.98;1.52;;;;;;;24.03;54.70;99941.44;10333644;28;20533;-72
2022/07/17 01:56:53;;;;;;;8.57;1.27;;;;;;;23.77;55.34;99916.09;10335081;28;20137;-72
2022/07/17 02:01:53;;;;;;;10.20;1.77;;;;;;;23.84;56.01;99968.19;10335605;28;20049;-72
2022/07/17 02:06:55;;;;;;;13.13;1.13;;;;;;;23.83;55.90;99996.41;10334312;28;20042;-72
2022/07/17 02:11:56;;;;;;;5.22;1.20;;;;;;;22.46;56.00;99772.28;10332897;28;20038;-72
2022/07/17 02:16:57;;;;;;;7.53;1.20;;;;;;;23.08;55.66;99898.91;10333284;28;20100;-72
2022/07/17 02:21:58;;;;;;;6.82;1.10;;;;;;;23.90;55.75;100010.53;10334734;28;20072;-72
2022/07/17 02:26:59;;;;;;;7.68;1.30;;;;;;;23.93;55.21;100018.16;10332971;28;20157;-72
2022/07/17 02:31:59;;;;;;;4.72;1.38;;;;;;;23.29;55.51;99909.88;10333728;28;20054;-71
2022/07/17 02:37:00;;;;;;;9.73;1.52;;;;;;;23.76;56.48;99993.13;10329611;28;20146;-71
2022/07/17 02:42:01;;;;;;;5.90;1.13;;;;;;;23.68;57.02;99988.97;10331401;28;20053;-72
2022/07/17 02:47:02;;;;;;;6.78;1.20;;;;;;;23.52;57.42;99988.09;10292710;28;20050;-71
2022/07/17 02:52:03;;;;;;;8.27;1.70;;;;;;;22.73;57.49;99867.75;10291918;28;20523;-72
2022/07/17 02:57:04;;;;;;;3.72;1.20;;;;;;;23.24;57.47;99967.56;10291779;28;20043;-71
2022/07/17 03:02:04;;;;;;;4.40;1.00;;;;;;;23.24;57.53;99960.28;10291592;28;20039;-71
2022/07/17 03:07:06;;;;;;;2.65;0.90;;;;;;;23.37;57.08;99988.00;10292388;28;20098;-71
2022/07/17 03:12:07;;;;;;;3.20;1.08;;;;;;;23.44;56.74;99977.72;10292132;28;20043;-71
2022/07/17 03:17:07;;;;;;;8.50;1.27;;;;;;;23.70;56.31;99984.16;10291300;28;20046;-71
2022/07/17 03:22:08;;;;;;;30.88;2.67;;;;;;;23.66;56.59;99951.28;10292335;28;20403;-70
2022/07/17 03:27:09;;;;;;;15.73;1.40;;;;;;;23.45;55.87;99898.88;10291184;28;20049;-71
2022/07/17 03:32:10;;;;;;;5.50;1.20;;;;;;;24.19;55.81;99993.84;10323326;28;20049;-71
2022/07/17 03:37:11;;;;;;;8.75;1.20;;;;;;;24.94;54.61;99970.63;10291679;28;20478;-71
2022/07/17 03:42:12;;;;;;;3.67;1.02;;;;;;;25.44;53.36;99985.28;10290992;28;20054;-69
2022/07/17 03:47:13;;;;;;;6.03;1.00;;;;;;;26.34;51.37;99961.81;10291690;28;20442;-70
2022/07/17 03:52:14;;;;;;;4.45;0.90;;;;;;;27.64;49.19;99986.63;10291211;28;20530;-69
2022/07/17 03:57:14;;;;;;;5.03;1.17;;;;;;;28.30;47.21;99984.19;10322392;28;20077;-69
2022/07/17 04:02:15;;;;;;;5.28;1.27;;;;;;;28.79;46.10;99978.28;10290645;28;20043;-69
2022/07/17 04:07:28;;;;;;;3.50;1.00;;;;;;;29.32;44.57;99971.66;10290740;28;20478;-70
2022/07/17 04:12:29;;;;;;;2.78;1.10;;;;;;;29.14;43.64;99869.44;10291274;28;20054;-69
2022/07/17 04:17:29;;;;;;;7.95;1.25;;;;;;;30.10;42.69;99980.00;10296801;28;20042;-70
2022/07/17 04:22:30;;;;;;;3.50;0.95;;;;;;;30.49;41.52;99965.69;10298095;28;20039;-70
2022/07/17 04:27:31;;;;;;;9.77;1.65;;;;;;;29.70;40.88;99867.47;10298439;28;20085;-70
2022/07/17 04:32:32;;;;;;;5.88;1.38;;;;;;;28.70;42.25;99875.41;10297673;28;20558;-69
2022/07/17 04:37:33;;;;;;;2.47;1.00;;;;;;;29.19;41.85;99943.16;10296796;28;20073;-70
2022/07/17 04:42:34;;;;;;;3.83;1.20;;;;;;;29.86;41.55;99972.81;10297380;28;20043;-70
2022/07/17 04:47:35;;;;;;;3.35;1.00;;;;;;;29.31;41.35;99855.13;10297866;28;20146;-70
2022/07/17 04:52:36;;;;;;;27.25;2.83;;;;;;;30.38;40.52;99973.34;10295950;28;20043;-70
2022/07/17 04:57:37;;;;;;;7.72;0.90;;;;;;;30.40;39.79;99930.00;10296976;28;20453;-70
2022/07/17 05:02:38;;;;;;;4.20;1.33;;;;;;;29.89;40.22;99840.78;10296134;28;20181;-71
2022/07/17 05:07:39;;;;;;;12.65;1.30;;;;;;;30.83;40.33;99962.41;10296427;28;20038;-71
2022/07/17 05:12:40;;;;;;;4.55;1.52;;;;;;;31.01;39.54;99952.38;10328349;28;20043;-71
2022/07/17 05:17:41;;;;;;;6.97;1.45;;;;;;;30.89;38.96;99944.72;10296775;28;20482;-70
2022/07/17 05:22:42;;;;;;;3.72;1.02;;;;;;;30.35;38.71;99847.91;10295364;28;20042;-69
2022/07/17 05:27:43;;;;;;;5.88;1.08;;;;;;;30.96;38.11;99924.25;10295535;28;20414;-70
2022/07/17 05:32:44;;;;;;;6.07;1.20;;;;;;;30.99;38.00;99916.19;10295546;28;20125;-70
2022/07/17 05:37:45;;;;;;;1.60;0.90;;;;;;;30.56;37.70;99940.59;10320447;28;20446;-71
2022/07/17 05:42:45;;;;;;;7.53;1.10;;;;;;;30.25;38.42;99917.47;10304306;28;20038;-69
2022/07/17 05:47:46;;;;;;;4.65;1.13;;;;;;;30.08;38.26;99914.53;10314910;28;20418;-69
2022/07/17 05:52:47;;;;;;;5.57;1.00;;;;;;;28.96;38.58;99802.75;10334569;28;20494;-70
2022/07/17 05:57:48;;;;;;;3.97;1.10;;;;;;;29.65;38.84;99901.25;10334971;28;20054;-70
2022/07/17 06:02:49;;;;;;;1.90;0.82;;;;;;;29.13;38.77;99813.09;10325421;28;20046;-70
2022/07/17 06:07:49;;;;;;;8.95;1.30;;;;;;;29.77;38.38;99903.47;10333995;28;20072;-69
2022/07/17 06:12:52;;;;;;;4.30;1.10;;;;;;;30.36;37.52;99904.31;10327713;28;20142;-68
2022/07/17 06:17:53;;;;;;;4.80;0.90;;;;;;;30.60;36.69;99796.28;10302162;28;20522;-68
2022/07/17 06:22:54;;;;;;;5.47;1.10;;;;;;;31.69;35.40;99886.31;10293183;28;20043;-68
2022/07/17 06:27:54;;;;;;;5.38;1.48;;;;;;;32.15;35.23;99901.41;10292714;28;20151;-69
2022/07/17 06:32:56;;;;;;;4.63;1.30;;;;;;;31.77;34.08;99809.44;10293863;28;20054;-67
2022/07/17 06:37:57;;;;;;;7.03;1.35;;;;;;;32.38;33.91;99882.81;10292475;28;20069;-68
2022/07/17 06:42:58;;;;;;;7.73;1.63;;;;;;;32.25;34.35;99879.09;10293475;28;20046;-69
2022/07/17 06:47:59;;;;;;;30.65;2.42;;;;;;;32.58;34.01;99867.59;10291966;28;20129;-69
2022/07/17 06:53:00;;;;;;;4.75;1.02;;;;;;;32.95;32.58;99869.59;10311066;28;20046;-69
2022/07/17 06:58:01;;;;;;;7.38;1.42;;;;;;;33.24;31.41;99861.75;10330459;28;20132;-68
2022/07/17 07:03:02;;;;;;;10.23;1.10;;;;;;;33.69;30.17;99874.94;10330491;28;20454;-68
2022/07/17 07:08:03;;;;;;;6.10;1.30;;;;;;;33.81;29.18;99875.81;10332274;28;20061;-69
2022/07/17 07:13:04;;;;;;;5.90;1.35;;;;;;;33.72;28.40;99806.22;10332213;28;20046;-69
2022/07/17 07:18:04;;;;;;;58.72;4.75;;;;;;;33.27;29.00;99687.66;10316458;28;20041;-74
2022/07/17 07:23:05;;;;;;;8.55;1.30;;;;;;;34.49;27.74;99872.00;10324323;28;20038;-73
2022/07/17 07:28:06;;;;;;;8.32;1.13;;;;;;;34.66;27.58;99869.09;10325409;28;20081;-74
2022/07/17 07:33:07;;;;;;;44.38;3.72;;;;;;;34.80;27.29;99851.44;10325612;28;20042;-73
2022/07/17 07:38:08;;;;;;;6.70;1.17;;;;;;;34.97;26.84;99843.75;10326900;28;20062;-72
2022/07/17 07:43:09;;;;;;;8.65;1.50;;;;;;;35.12;26.34;99827.66;10326957;28;20038;-73
2022/07/17 07:48:10;;;;;;;5.22;1.10;;;;;;;34.93;26.00;99784.84;10333926;28;20434;-73
2022/07/17 07:53:11;;;;;;;15.05;1.77;;;;;;;35.41;25.88;99826.59;10338927;28;20042;-73
2022/07/17 07:58:13;;;;;;;10.95;1.63;;;;;;;35.64;25.71;99836.03;10339341;28;20042;-72
2022/07/17 08:03:14;;;;;;;7.80;1.60;;;;;;;34.41;25.93;99638.53;10311192;28;20034;-71
2022/07/17 08:08:14;;;;;;;4.82;1.30;;;;;;;35.09;25.43;99709.66;10362547;28;20042;-72
2022/07/17 08:13:16;;;;;;;32.75;2.50;;;;;;;35.98;25.09;99817.25;10331121;28;20038;-74
2022/07/17 08:18:17;;;;;;;6.90;1.38;;;;;;;36.00;24.97;99836.28;10333141;28;20046;-71
2022/07/17 08:23:18;;;;;;;6.45;1.75;;;;;;;35.53;25.58;99729.91;10330973;28;20402;-72
2022/07/17 08:28:19;;;;;;;6.07;1.70;;;;;;;36.24;24.38;99803.00;10333394;28;20034;-74
2022/07/17 08:33:20;;;;;;;6.60;1.67;;;;;;;36.55;24.60;99807.81;10332756;28;20026;-74
2022/07/17 08:38:21;;;;;;;11.20;2.22;;;;;;;36.65;23.86;99798.19;10333684;28;20059;-75
2022/07/17 08:43:22;;;;;;;8.27;1.73;;;;;;;36.58;23.60;99772.28;10332280;28;20049;-73
2022/07/17 08:48:27;;;;;;;31.85;3.67;;;;;;;36.91;23.44;99810.66;10329485;28;20387;-76
2022/07/17 08:53:28;;;;;;;21.33;2.10;;;;;;;36.51;24.00;99764.59;10331463;28;20050;-72
2022/07/17 08:58:29;;;;;;;6.68;1.75;;;;;;;36.97;23.71;99800.91;10332336;28;20038;-72
2022/07/17 09:03:30;;;;;;;7.83;1.47;;;;;;;36.86;23.56;99805.41;10327150;28;20049;-73
2022/07/17 09:08:33;;;;;;;15.68;2.20;;;;;;;35.88;24.44;99630.66;10333986;28;20038;-73
2022/07/17 09:13:34;;;;;;;6.15;1.50;;;;;;;37.05;23.47;99794.44;10332688;28;20038;-73
2022/07/17 09:18:57;;;;;;;9.30;1.50;;;;;;;36.68;23.50;99711.69;10361558;28;20426;-75
2022/07/17 09:24:00;;;;;;;7.05;1.55;;;;;;;36.99;23.70;99782.00;10334219;28;20030;-71
2022/07/17 09:29:02;;;;;;;9.25;1.70;;;;;;;37.06;23.96;99779.41;10328858;28;20040;-74
2022/07/17 09:34:03;;;;;;;15.15;1.73;;;;;;;37.06;24.55;99765.56;10331511;28;20442;-72
2022/07/17 09:39:05;;;;;;;32.90;3.55;;;;;;;37.13;24.01;99749.13;10331238;28;20058;-72
2022/07/17 09:44:06;;;;;;;149.10;8.35;;;;;;;37.19;24.13;99728.31;10331433;28;20093;-72
2022/07/17 09:49:10;;;;;;;17.97;2.33;;;;;;;37.00;24.85;99684.75;10330223;28;20128;-72
2022/07/17 09:54:11;;;;;;;13.18;2.45;;;;;;;37.67;23.74;99764.97;10327259;28;20042;-70
2022/07/17 09:59:13;;;;;;;8.67;1.70;;;;;;;37.73;23.67;99767.44;10311572;28;20046;-71
2022/07/17 10:04:16;;;;;;;13.77;2.53;;;;;;;37.13;22.68;99668.03;10334432;28;20049;-71
2022/07/17 10:09:17;;;;;;;14.05;2.15;;;;;;;37.78;22.81;99758.81;10334627;28;20097;-70
2022/07/17 10:14:19;;;;;;;16.30;2.40;;;;;;;37.57;23.20;99718.41;10332695;28;20100;-72
2022/07/17 10:19:24;;;;;;;6.22;1.55;;;;;;;37.74;22.53;99733.00;10342459;28;20098;-71
2022/07/17 10:24:27;;;;;;;7.10;1.60;;;;;;;37.94;22.71;99747.69;10325013;28;20047;-71
2022/07/17 10:29:35;;;;;;;6.80;1.80;;;;;;;38.21;22.81;99756.91;10292789;28;20046;-72
2022/07/17 10:34:42;;;;;;;13.15;3.42;;;;;;;37.59;22.41;99646.81;10293795;28;20047;-72
2022/07/17 10:40:04;;;;;;;9.43;2.03;;;;;;;38.27;22.37;99713.81;10292191;28;20054;-71
2022/07/17 10:49:38;;;;;;;10.45;2.55;;;;;;;37.85;22.15;99681.34;10522266;28;20884;-73
2022/07/17 10:54:39;;;;;;;17.70;3.43;;;;;;;38.21;22.76;99731.94;10477665;28;20036;-74
2022/07/17 10:59:42;;;;;;;8.77;2.13;;;;;;;38.16;22.20;99729.47;10472310;28;20471;-72
2022/07/17 11:04:42;;;;;;;18.70;2.72;;;;;;;38.07;22.02;99696.41;10466735;28;20397;-73
2022/07/17 11:09:47;;;;;;;8.90;2.27;;;;;;;37.84;22.34;99704.69;10471698;28;20049;-72
2022/07/17 11:14:59;;;;;;;20.08;3.50;;;;;;;38.03;22.88;99726.06;10482135;28;20037;-72
2022/07/17 11:20:02;;;;;;;7.05;1.85;;;;;;;38.02;22.63;99711.38;10470844;28;20393;-71
2022/07/17 11:25:05;;;;;;;9.40;2.35;;;;;;;37.98;21.65;99704.97;10464870;28;20040;-71
2022/07/17 11:30:13;;;;;;;7.63;2.40;;;;;;;38.14;22.27;99702.91;10465478;28;20468;-71
2022/07/17 11:35:19;;;;;;;50.10;3.78;;;;;;;38.40;21.61;99726.34;10488036;28;20547;-69
2022/07/17 11:40:20;;;;;;;7.10;2.50;;;;;;;38.30;21.80;99697.22;10480560;28;20037;-73
2022/07/17 11:45:20;;;;;;;13.70;2.63;;;;;;;38.14;22.12;99696.53;10463337;28;20099;-72
2022/07/17 11:50:21;;;;;;;7.63;2.20;;;;;;;38.22;22.05;99716.88;10461873;28;20037;-72
2022/07/17 11:55:22;;;;;;;5.23;2.10;;;;;;;38.23;21.89;99693.50;10459786;28;20497;-71
2022/07/17 12:00:23;;;;;;;6.23;1.87;;;;;;;38.24;21.94;99695.94;10442369;28;20106;-71
2022/07/17 12:05:29;;;;;;;8.07;2.00;;;;;;;38.20;22.53;99678.41;10432985;28;20045;-71
2022/07/17 12:10:32;;;;;;;10.45;2.00;;;;;;;38.20;22.14;99672.06;10433072;28;20124;-71
2022/07/17 12:15:45;;;;;;;6.97;2.15;;;;;;;38.56;22.67;99710.38;10432965;28;20493;-71
2022/07/17 12:20:48;;;;;;;7.32;2.20;;;;;;;38.59;21.91;99712.41;10432515;28;20048;-71
2022/07/17 12:25:49;;;;;;;13.02;2.25;;;;;;;38.54;21.88;99698.03;10434638;28;20056;-73
2022/07/17 12:30:50;;;;;;;12.97;2.17;;;;;;;38.56;21.83;99685.38;10435886;28;20127;-71
2022/07/17 12:35:51;;;;;;;7.03;2.17;;;;;;;38.14;22.22;99625.25;10433774;28;20124;-67
2022/07/17 12:40:52;;;;;;;13.40;2.10;;;;;;;38.47;21.97;99695.13;10433837;28;20440;-70
2022/07/17 12:45:52;;;;;;;9.23;2.00;;;;;;;38.42;22.15;99701.81;10433266;28;20063;-69
2022/07/17 12:50:53;;;;;;;10.33;1.93;;;;;;;37.95;22.09;99635.59;10432110;28;20051;-69
2022/07/17 12:55:54;;;;;;;9.23;1.80;;;;;;;37.96;23.53;99629.66;10432941;28;20033;-69
2022/07/17 13:00:55;;;;;;;5.90;2.10;;;;;;;38.27;22.14;99677.75;10433167;28;20052;-69
2022/07/17 13:05:56;;;;;;;17.40;2.60;;;;;;;38.20;22.52;99672.06;10436484;28;20079;-73
2022/07/17 13:10:57;;;;;;;4.63;1.80;;;;;;;38.25;22.47;99691.19;10446842;28;20128;-71
2022/07/17 13:15:58;;;;;;;5.82;2.10;;;;;;;38.16;22.33;99694.19;10447637;28;20373;-71
2022/07/17 13:20:59;;;;;;;14.50;2.93;;;;;;;38.12;22.74;99693.34;10438643;28;20096;-71
2022/07/17 13:26:01;;;;;;;10.43;2.30;;;;;;;37.58;22.75;99642.44;10433070;28;20044;-69
2022/07/17 13:31:01;;;;;;;8.85;2.80;;;;;;;37.96;22.63;99671.25;10432532;28;20051;-69
2022/07/17 13:36:02;;;;;;;6.13;2.33;;;;;;;38.10;23.07;99685.38;10435853;28;20530;-70
2022/07/17 13:41:03;;;;;;;13.07;2.43;;;;;;;37.72;22.76;99618.94;10434760;28;20588;-71
2022/07/17 13:46:04;;;;;;;8.07;2.30;;;;;;;38.08;23.17;99664.72;10449618;28;20068;-69
2022/07/17 13:51:05;;;;;;;5.27;2.07;;;;;;;38.12;23.51;99696.91;10438119;28;20067;-71
2022/07/17 13:56:06;;;;;;;23.33;2.40;;;;;;;37.95;22.98;99682.75;10430073;28;20102;-71
2022/07/17 14:01:07;;;;;;;9.20;2.37;;;;;;;37.83;22.40;99695.56;10432847;28;20040;-69
2022/07/17 14:06:08;;;;;;;16.50;2.37;;;;;;;37.75;23.37;99668.06;10449191;28;20040;-70
2022/07/17 14:11:13;;;;;;;9.90;2.77;;;;;;;37.92;22.86;99692.56;10448812;28;20068;-71
2022/07/17 14:16:14;;;;;;;13.52;2.25;;;;;;;37.13;22.83;99630.06;10447518;28;20037;-72
2022/07/17 14:21:15;;;;;;;9.60;2.50;;;;;;;37.19;23.84;99675.69;10443509;28;20037;-70
2022/07/17 14:26:16;;;;;;;20.50;3.35;;;;;;;36.69;23.72;99619.19;10445243;28;20098;-72
2022/07/17 14:31:17;;;;;;;14.37;2.63;;;;;;;36.98;24.12;99691.81;10448950;28;20037;-70
2022/07/17 14:36:18;;;;;;;5.22;1.90;;;;;;;36.55;24.17;99635.47;10446399;28;20082;-70
2022/07/17 14:41:19;;;;;;;7.80;1.90;;;;;;;36.69;24.35;99691.16;10434793;28;20212;-70
2022/07/17 14:46:21;;;;;;;6.40;2.30;;;;;;;36.44;24.53;99687.75;10435563;28;20068;-71
2022/07/17 14:51:22;;;;;;;7.65;2.28;;;;;;;36.22;25.14;99688.38;10445795;28;20295;-70
2022/07/17 14:56:22;;;;;;;7.32;2.10;;;;;;;36.00;25.33;99678.72;10441121;28;20056;-69
2022/07/17 15:01:23;;;;;;;11.20;2.00;;;;;;;35.66;25.64;99620.22;10454191;28;20041;-69
2022/07/17 15:06:24;;;;;;;15.65;2.70;;;;;;;35.67;25.81;99621.81;10449424;28;20574;-70
2022/07/17 15:11:25;;;;;;;16.27;3.03;;;;;;;35.72;25.90;99665.75;10446592;28;20041;-70
2022/07/17 15:16:25;;;;;;;8.95;2.67;;;;;;;35.73;25.28;99688.66;10441416;28;20128;-69
2022/07/17 15:21:26;;;;;;;11.73;2.78;;;;;;;35.46;26.26;99663.44;10453067;28;20041;-69
2022/07/17 15:26:27;;;;;;;11.00;2.50;;;;;;;35.75;26.18;99709.25;10447148;28;20040;-70
2022/07/17 15:31:28;;;;;;;22.85;3.50;;;;;;;35.69;26.55;99710.66;10428936;28;20528;-71
2022/07/17 15:36:29;;;;;;;13.98;2.85;;;;;;;34.98;26.89;99621.00;10454582;28;20041;-70
2022/07/17 15:41:30;;;;;;;15.68;2.72;;;;;;;35.29;27.32;99711.47;10419286;28;20552;-70
2022/07/17 15:46:31;;;;;;;8.10;2.03;;;;;;;35.02;27.58;99703.91;10429718;28;20063;-69
2022/07/17 15:51:32;;;;;;;8.75;2.67;;;;;;;34.33;27.85;99623.72;10460768;28;20443;-71
2022/07/17 15:56:33;;;;;;;14.05;2.35;;;;;;;34.68;27.99;99719.81;10461093;28;20162;-70
2022/07/17 16:01:34;;;;;;;9.73;2.42;;;;;;;34.49;28.27;99715.63;10453262;28;20455;-71
2022/07/17 16:06:35;;;;;;;14.02;2.88;;;;;;;34.27;28.60;99708.59;10428808;28;20053;-71
2022/07/17 16:11:35;;;;;;;8.90;2.15;;;;;;;34.03;29.29;99714.06;10418886;28;20045;-72
2022/07/17 16:16:36;;;;;;;9.82;2.38;;;;;;;33.30;29.58;99649.25;10419438;28;20076;-71
2022/07/17 16:21:37;;;;;;;18.20;3.15;;;;;;;33.06;30.37;99651.88;10429864;28;20045;-71
2022/07/17 16:26:38;;;;;;;97.60;7.70;;;;;;;33.18;31.28;99716.06;10418222;28;20041;-71
2022/07/17 16:31:39;;;;;;;16.67;3.25;;;;;;;33.02;31.15;99715.00;10417349;28;20049;-71
2022/07/17 16:36:40;;;;;;;43.05;5.40;;;;;;;32.84;31.56;99730.78;10439508;28;20037;-71
2022/07/17 16:41:41;;;;;;;96.18;9.57;;;;;;;31.77;32.51;99594.41;10458724;28;20079;-71
2022/07/17 16:46:42;;;;;;;16.67;2.63;;;;;;;32.32;33.09;99725.50;10458642;28;20057;-71
2022/07/17 16:51:43;;;;;;;13.13;2.85;;;;;;;32.21;33.50;99735.22;10458143;28;20041;-71
2022/07/17 16:56:44;;;;;;;14.32;2.20;;;;;;;31.99;33.52;99734.31;10457947;28;20520;-72
2022/07/17 17:01:44;;;;;;;10.63;2.10;;;;;;;31.78;33.56;99749.81;10458256;28;20040;-71
2022/07/17 17:06:45;;;;;;;10.30;2.65;;;;;;;31.58;34.08;99746.56;10457200;28;20519;-71
2022/07/17 17:11:46;;;;;;;11.60;3.25;;;;;;;31.34;33.87;99747.06;10439847;28;20037;-70
2022/07/17 17:16:47;;;;;;;16.23;2.50;;;;;;;31.25;33.73;99729.75;10457372;28;20049;-71
2022/07/17 17:21:48;;;;;;;16.58;3.25;;;;;;;31.30;34.44;99757.03;10457264;28;20398;-70
2022/07/17 17:26:49;;;;;;;24.55;3.00;;;;;;;31.19;34.67;99760.41;10456311;28;20045;-71
2022/07/17 17:31:49;;;;;;;13.80;2.83;;;;;;;31.16;34.95;99761.84;10456104;28;20592;-70
2022/07/17 17:36:50;;;;;;;13.88;2.10;;;;;;;31.13;34.89;99774.25;10456705;28;20055;-71
2022/07/17 17:41:51;;;;;;;18.08;2.50;;;;;;;30.88;35.28;99742.91;10455290;28;20098;-71
2022/07/17 17:46:56;;;;;;;19.20;2.65;;;;;;;30.93;35.34;99770.19;10449403;28;20053;-70
2022/07/17 17:51:56;;;;;;;10.52;2.30;;;;;;;30.84;35.25;99779.50;10456537;28;20037;-70
2022/07/17 17:56:57;;;;;;;7.82;2.22;;;;;;;30.67;35.17;99761.03;10455129;28;20045;-70
2022/07/17 18:01:58;;;;;;;13.70;2.30;;;;;;;30.57;35.57;99770.31;10456617;28;20040;-71
2022/07/17 18:06:59;;;;;;;8.48;2.08;;;;;;;30.43;35.70;99758.66;10455524;28;20063;-69
2022/07/17 18:12:00;;;;;;;27.77;2.53;;;;;;;30.42;35.94;99785.25;10455789;28;20041;-71
2022/07/17 18:17:02;;;;;;;12.30;2.50;;;;;;;30.28;36.35;99770.03;10455241;28;20488;-71
2022/07/17 18:22:03;;;;;;;11.10;3.57;;;;;;;29.25;36.16;99623.84;10455757;28;20067;-71
2022/07/17 18:27:04;;;;;;;17.67;2.65;;;;;;;29.96;36.89;99769.94;10455670;28;20420;-71
2022/07/17 18:32:05;;;;;;;8.77;1.98;;;;;;;29.71;36.99;99743.19;10454709;28;20070;-70
2022/07/17 18:37:06;;;;;;;12.73;2.50;;;;;;;29.06;37.17;99652.16;10453882;28;20101;-70
2022/07/17 18:42:07;;;;;;;4.70;2.08;;;;;;;29.67;37.62;99764.88;10454674;28;20037;-71
2022/07/17 18:47:08;;;;;;;8.25;2.20;;;;;;;29.54;38.25;99774.72;10451621;28;20061;-70
2022/07/17 18:52:09;;;;;;;8.23;2.03;;;;;;;29.36;38.25;99764.75;10454386;28;20041;-70
2022/07/17 18:57:10;;;;;;;8.32;2.00;;;;;;;28.94;38.81;99717.47;10437860;28;20473;-71
2022/07/17 19:02:11;;;;;;;6.85;1.90;;;;;;;29.33;38.95;99773.56;10424313;28;20044;-71
2022/07/17 19:07:11;;;;;;;13.55;2.33;;;;;;;29.29;39.63;99795.25;10414333;28;20045;-71
2022/07/17 19:12:12;;;;;;;8.88;2.30;;;;;;;28.76;39.53;99716.47;10421029;28;20033;-70
2022/07/17 19:17:15;;;;;;;97.85;7.55;;;;;;;28.72;41.04;99722.84;10420423;28;20080;-71
2022/07/17 19:22:15;;;;;;;55.13;4.07;;;;;;;29.05;40.79;99787.28;10420698;28;20123;-71
2022/07/17 19:27:16;;;;;;;10.82;2.85;;;;;;;29.04;41.11;99793.84;10419713;28;20048;-71
2022/07/17 19:32:17;;;;;;;9.25;2.40;;;;;;;28.92;41.81;99800.91;10431198;28;20044;-71
2022/07/17 19:37:18;;;;;;;14.43;2.80;;;;;;;28.51;42.49;99769.69;10461243;28;20044;-71
2022/07/17 19:42:20;;;;;;;41.40;3.97;;;;;;;28.42;43.50;99794.16;10461760;28;20075;-69
2022/07/17 19:47:21;;;;;;;11.27;2.50;;;;;;;28.13;43.54;99786.16;10455399;28;20470;-70
2022/07/17 19:52:22;;;;;;;10.38;2.17;;;;;;;28.03;44.55;99807.34;10429136;28;20061;-70
2022/07/17 19:57:23;;;;;;;13.98;2.70;;;;;;;27.80;44.74;99804.44;10432852;28;20044;-71
2022/07/17 20:02:24;;;;;;;17.00;2.53;;;;;;;27.77;45.15;99805.00;10429253;28;20105;-71
2022/07/17 20:07:25;;;;;;;19.33;3.30;;;;;;;27.58;45.61;99799.50;10446843;28;20185;-71
2022/07/17 20:12:26;;;;;;;11.30;2.22;;;;;;;27.48;46.22;99788.75;10451615;28;20038;-71
2022/07/17 20:17:26;;;;;;;15.90;3.00;;;;;;;26.62;46.89;99694.13;10417621;28;20037;-71
2022/07/17 20:22:27;;;;;;;10.38;2.72;;;;;;;26.64;47.33;99719.16;10418470;28;20124;-71
2022/07/17 20:27:28;;;;;;;23.88;3.47;;;;;;;27.04;47.62;99793.38;10417926;28;20045;-71
2022/07/17 20:32:31;;;;;;;18.77;3.03;;;;;;;27.06;47.77;99793.06;10417607;28;20076;-71
2022/07/17 20:37:31;;;;;;;10.07;2.20;;;;;;;26.62;47.44;99720.53;10418394;28;20500;-71
2022/07/17 20:42:32;;;;;;;9.75;2.53;;;;;;;26.61;48.26;99719.72;10417095;28;20044;-71
2022/07/17 20:47:33;;;;;;;9.80;2.33;;;;;;;27.03;48.64;99772.66;10417368;28;20053;-71
2022/07/17 20:52:35;;;;;;;21.50;5.68;;;;;;;26.38;49.02;99691.38;10416674;28;20046;-71
2022/07/17 20:57:36;;;;;;;22.23;5.05;;;;;;;26.71;49.89;99784.19;10417007;28;20050;-71
2022/07/17 21:02:37;;;;;;;14.43;3.80;;;;;;;26.07;50.30;99677.25;10418001;28;20037;-71
2022/07/17 21:07:38;;;;;;;16.33;2.90;;;;;;;26.18;49.96;99686.13;10437549;28;20381;-71
2022/07/17 21:12:39;;;;;;;58.78;4.65;;;;;;;26.53;50.69;99755.75;10457812;28;20037;-71
2022/07/17 21:17:40;;;;;;;22.63;2.78;;;;;;;26.28;51.34;99710.53;10458300;28;20037;-71
2022/07/17 21:22:41;;;;;;;14.55;2.65;;;;;;;26.21;51.27;99704.59;10457328;28;20044;-71
2022/07/17 21:27:42;;;;;;;28.55;3.17;;;;;;;26.58;50.29;99760.38;10456813;28;20531;-71
2022/07/17 21:32:43;;;;;;;11.05;2.90;;;;;;;26.49;50.49;99732.94;10455968;28;20041;-71
2022/07/17 21:37:43;;;;;;;18.50;6.95;;;;;;;26.38;50.15;99685.94;10456876;28;20393;-71
2022/07/17 21:42:44;;;;;;;16.90;4.97;;;;;;;26.74;50.50;99771.91;10456534;28;20461;-71
2022/07/17 21:47:45;;;;;;;19.08;3.40;;;;;;;26.70;50.10;99768.94;10456098;28;20432;-71
2022/07/17 21:52:46;;;;;;;19.23;2.78;;;;;;;25.86;50.60;99632.28;10455723;28;20037;-71
2022/07/17 21:57:47;;;;;;;8.10;2.08;;;;;;;26.68;50.89;99789.41;10455974;28;20037;-71
2022/07/17 22:02:48;;;;;;;13.25;2.53;;;;;;;26.08;51.16;99713.44;10456108;28;20041;-71
2022/07/17 22:07:49;;;;;;;10.88;2.38;;;;;;;26.72;50.15;99817.72;10454903;28;20063;-71
2022/07/17 22:12:50;;;;;;;9.68;2.90;;;;;;;26.73;50.34;99794.81;10454880;28;20040;-71
2022/07/17 22:17:51;;;;;;;23.75;3.83;;;;;;;26.57;50.42;99745.13;10454894;28;20068;-71
2022/07/17 22:22:52;;;;;;;16.02;3.20;;;;;;;26.65;50.28;99730.84;10454720;28;20047;-71
2022/07/17 22:27:53;;;;;;;14.02;2.80;;;;;;;26.75;49.43;99738.94;10455184;28;20111;-71
2022/07/17 22:32:54;;;;;;;14.15;3.13;;;;;;;26.49;49.79;99696.69;10454347;28;20123;-71
2022/07/17 22:37:55;;;;;;;10.80;2.20;;;;;;;26.72;48.79;99728.59;10454211;28;20131;-71
2022/07/17 22:42:56;;;;;;;10.27;2.30;;;;;;;26.42;49.40;99689.69;10454427;28;20473;-71
2022/07/17 22:47:57;;;;;;;12.90;3.00;;;;;;;26.57;49.12;99718.69;10454568;28;20064;-71
2022/07/17 22:52:58;;;;;;;10.32;2.50;;;;;;;26.68;49.90;99740.38;10454890;28;20060;-71
2022/07/17 22:57:58;;;;;;;15.13;2.60;;;;;;;26.71;50.49;99746.03;10454217;28;20037;-71
2022/07/17 23:03:00;;;;;;;13.55;2.67;;;;;;;26.49;50.41;99738.38;10453840;28;20063;-71
2022/07/17 23:08:01;;;;;;;14.27;2.30;;;;;;;26.31;50.40;99734.44;10453534;28;20548;-70
2022/07/17 23:13:02;;;;;;;14.73;2.60;;;;;;;26.51;50.47;99771.59;10453455;28;20029;-70
2022/07/17 23:18:03;;;;;;;12.05;2.15;;;;;;;26.54;50.48;99772.94;10453845;28;20083;-70